createdAt,value
2023-04-07T00:00:04.717Z,11.67
2023-04-07T00:02:41.912Z,11.60
2023-04-07T00:05:12.189Z,12.30
2023-04-07T00:07:52.364Z,11.30
2023-04-07T00:10:26.723Z,11.13
2023-04-07T00:12:55.325Z,11.53
2023-04-07T00:15:23.712Z,11.03
2023-04-07T00:17:51.998Z,11.80
2023-04-07T00:20:20.648Z,10.70
2023-04-07T00:22:49.105Z,11.03
2023-04-07T00:25:17.721Z,10.77
2023-04-07T00:27:47.386Z,11.17
2023-04-07T00:30:16.428Z,11.40
2023-04-07T00:32:45.518Z,11.30
2023-04-07T00:35:14.083Z,12.10
2023-04-07T00:37:42.331Z,11.80
2023-04-07T00:40:11.721Z,11.17
2023-04-07T00:42:40.016Z,11.37
2023-04-07T00:45:12.665Z,11.63
2023-04-07T00:47:41.534Z,11.03
2023-04-07T00:50:11.986Z,10.77
2023-04-07T00:52:42.358Z,11.50
2023-04-07T00:55:11.206Z,10.67
2023-04-07T00:57:39.500Z,10.93
2023-04-07T01:00:11.888Z,11.27
2023-04-07T01:02:47.536Z,10.57
2023-04-07T01:05:24.395Z,10.80
2023-04-07T01:08:06.497Z,10.77
2023-04-07T01:10:43.833Z,11.73
2023-04-07T01:13:29.587Z,11.10
2023-04-07T01:16:17.777Z,11.17
2023-04-07T01:18:56.827Z,11.37
2023-04-07T01:21:29.123Z,11.33
2023-04-07T01:24:21.552Z,10.30
2023-04-07T01:26:52.611Z,10.90
2023-04-07T01:29:47.653Z,10.97
2023-04-07T01:32:20.309Z,11.53
2023-04-07T01:34:51.710Z,11.33
2023-04-07T01:37:22.826Z,11.33
2023-04-07T01:39:51.243Z,11.73
2023-04-07T01:42:21.947Z,11.47
2023-04-07T01:44:52.749Z,10.87
2023-04-07T01:47:21.759Z,11.33
2023-04-07T01:49:52.937Z,10.40
2023-04-07T01:52:22.627Z,10.83
2023-04-07T01:54:51.078Z,11.13
2023-04-07T01:57:19.488Z,10.80
2023-04-07T01:59:56.636Z,10.10
2023-04-07T02:02:27.776Z,10.70
2023-04-07T02:04:58.171Z,10.80
2023-04-07T02:07:33.106Z,11.03
2023-04-07T02:10:08.003Z,10.83
2023-04-07T02:12:39.330Z,9.93
2023-04-07T02:15:17.520Z,10.23
2023-04-07T02:17:52.985Z,10.47
2023-04-07T02:20:23.327Z,10.40
2023-04-07T02:22:51.876Z,9.57
2023-04-07T02:25:25.952Z,9.73
2023-04-07T02:27:57.387Z,9.37
2023-04-07T02:30:28.349Z,10.03
2023-04-07T02:32:57.901Z,9.13
2023-04-07T02:35:26.645Z,10.20
2023-04-07T02:37:55.325Z,9.73
2023-04-07T02:40:23.757Z,9.43
2023-04-07T02:42:55.050Z,9.23
2023-04-07T02:45:26.391Z,9.27
2023-04-07T02:47:54.785Z,9.37
2023-04-07T02:50:23.453Z,9.03
2023-04-07T02:52:51.843Z,9.50
2023-04-07T02:55:20.313Z,9.77
2023-04-07T02:57:48.893Z,8.80
2023-04-07T03:00:29.847Z,8.80
2023-04-07T03:03:03.993Z,8.43
2023-04-07T03:05:35.885Z,8.70
2023-04-07T03:08:06.293Z,8.63
2023-04-07T03:10:35.992Z,8.80
2023-04-07T03:13:04.286Z,8.13
2023-04-07T03:15:36.136Z,7.83
2023-04-07T03:18:04.687Z,8.80
2023-04-07T03:20:33.082Z,8.50
2023-04-07T03:23:07.910Z,8.50
2023-04-07T03:25:36.587Z,8.03
2023-04-07T03:28:05.935Z,8.93
2023-04-07T03:30:38.820Z,8.67
2023-04-07T03:33:08.136Z,8.60
2023-04-07T03:35:36.504Z,8.63
2023-04-07T03:38:05.050Z,7.80
2023-04-07T03:40:35.651Z,8.40
2023-04-07T03:43:04.162Z,8.30
2023-04-07T03:45:34.583Z,8.37
2023-04-07T03:48:05.416Z,8.20
2023-04-07T03:50:34.122Z,7.70
2023-04-07T03:53:11.251Z,8.30
2023-04-07T03:55:40.677Z,8.73
2023-04-07T03:58:16.627Z,8.43
2023-04-07T04:00:49.369Z,8.00
2023-04-07T04:03:19.759Z,8.53
2023-04-07T04:06:08.314Z,7.70
2023-04-07T04:08:36.803Z,8.50
2023-04-07T04:11:06.897Z,8.37
2023-04-07T04:13:44.820Z,8.50
2023-04-07T04:16:15.216Z,8.03
2023-04-07T04:18:46.150Z,7.90
2023-04-07T04:21:16.350Z,8.27
2023-04-07T04:23:46.092Z,8.17
2023-04-07T04:26:14.620Z,8.90
2023-04-07T04:28:46.884Z,8.23
2023-04-07T04:31:16.729Z,7.87
2023-04-07T04:33:47.716Z,8.70
2023-04-07T04:36:16.464Z,7.87
2023-04-07T04:38:44.914Z,8.50
2023-04-07T04:41:19.529Z,8.00
2023-04-07T04:43:49.778Z,8.07
2023-04-07T04:46:23.250Z,8.47
2023-04-07T04:48:54.102Z,7.80
2023-04-07T04:51:23.896Z,8.27
2023-04-07T04:53:57.615Z,7.30
2023-04-07T04:56:28.197Z,8.70
2023-04-07T04:58:56.496Z,7.53
2023-04-07T05:01:42.601Z,7.87
2023-04-07T05:04:18.011Z,7.80
2023-04-07T05:06:52.811Z,7.47
2023-04-07T05:09:24.523Z,8.10
2023-04-07T05:11:52.849Z,8.47
2023-04-07T05:14:22.379Z,8.43
2023-04-07T05:17:05.980Z,7.33
2023-04-07T05:19:38.574Z,7.90
2023-04-07T05:22:14.693Z,8.03
2023-04-07T05:24:47.363Z,7.67
2023-04-07T05:27:16.278Z,7.83
2023-04-07T05:29:46.008Z,7.67
2023-04-07T05:32:23.181Z,8.10
2023-04-07T05:34:53.623Z,7.90
2023-04-07T05:37:24.283Z,7.90
2023-04-07T05:39:54.724Z,7.87
2023-04-07T05:42:23.141Z,7.90
2023-04-07T05:44:55.361Z,7.93
2023-04-07T05:47:25.904Z,7.83
2023-04-07T05:49:56.059Z,8.40
2023-04-07T05:52:24.594Z,7.03
2023-04-07T05:55:02.400Z,7.77
2023-04-07T05:57:33.205Z,7.47
2023-04-07T06:00:03.736Z,7.53
2023-04-07T06:02:42.743Z,7.20
2023-04-07T06:05:18.484Z,6.70
2023-04-07T06:07:48.110Z,7.50
2023-04-07T06:10:17.041Z,7.90
2023-04-07T06:12:47.526Z,7.97
2023-04-07T06:15:15.828Z,7.40
2023-04-07T06:17:45.725Z,7.33
2023-04-07T06:20:14.418Z,8.07
2023-04-07T06:22:44.252Z,7.47
2023-04-07T06:25:12.530Z,8.07
2023-04-07T06:27:40.820Z,7.73
2023-04-07T06:30:11.324Z,7.80
2023-04-07T06:32:39.639Z,8.03
2023-04-07T06:35:08.952Z,7.97
2023-04-07T06:37:37.366Z,7.83
2023-04-07T06:40:09.133Z,7.43
2023-04-07T06:42:37.387Z,8.03
2023-04-07T06:45:12.582Z,8.13
2023-04-07T06:47:43.369Z,7.77
2023-04-07T06:50:12.348Z,7.47
2023-04-07T06:52:40.631Z,7.60
2023-04-07T06:55:11.498Z,7.87
2023-04-07T06:57:39.810Z,7.40
2023-04-07T07:00:10.097Z,7.40
2023-04-07T07:02:38.644Z,6.83
2023-04-07T07:05:08.295Z,7.83
2023-04-07T07:07:36.654Z,8.80
2023-04-07T07:10:05.583Z,7.23
2023-04-07T07:12:35.288Z,7.70
2023-04-07T07:15:03.808Z,7.90
2023-04-07T07:17:32.152Z,7.90
2023-04-07T07:20:00.446Z,7.53
2023-04-07T07:22:28.721Z,7.63
2023-04-07T07:24:56.999Z,8.00
2023-04-07T07:27:25.800Z,7.13
2023-04-07T07:29:55.574Z,7.43
2023-04-07T07:32:23.865Z,7.37
2023-04-07T07:34:52.105Z,7.70
2023-04-07T07:37:20.395Z,7.90
2023-04-07T07:39:48.620Z,10.13
2023-04-07T07:42:16.877Z,7.70
2023-04-07T07:44:45.392Z,7.57
2023-04-07T07:47:15.520Z,7.60
2023-04-07T07:49:43.881Z,6.90
2023-04-07T07:52:12.150Z,7.40
2023-04-07T07:54:40.421Z,7.13
2023-04-07T07:57:08.661Z,6.68
2023-04-07T07:59:37.000Z,6.88
2023-04-07T08:02:05.511Z,6.97
2023-04-07T08:04:36.015Z,6.80
2023-04-07T08:07:05.373Z,6.65
2023-04-07T08:09:33.658Z,7.13
2023-04-07T08:12:02.116Z,9.55
2023-04-07T08:14:30.657Z,7.20
2023-04-07T08:17:01.182Z,9.32
2023-04-07T08:19:29.419Z,7.35
2023-04-07T08:21:59.104Z,7.00
2023-04-07T08:24:27.406Z,6.53
2023-04-07T08:26:55.996Z,6.85
2023-04-07T08:29:24.264Z,7.18
2023-04-07T08:31:52.562Z,7.03
2023-04-07T08:34:21.257Z,6.45
2023-04-07T08:36:50.633Z,6.53
2023-04-07T08:39:20.517Z,6.32
2023-04-07T08:41:51.251Z,7.10
2023-04-07T08:44:23.107Z,5.72
2023-04-07T08:46:58.402Z,6.22
2023-04-07T08:49:30.550Z,6.75
2023-04-07T08:52:09.178Z,7.80
2023-04-07T08:54:39.773Z,6.35
2023-04-07T08:57:09.724Z,6.90
2023-04-07T08:59:41.143Z,6.25
2023-04-07T09:02:10.174Z,6.38
2023-04-07T09:04:38.898Z,6.85
2023-04-07T09:07:07.097Z,6.57
2023-04-07T09:09:35.671Z,6.90
2023-04-07T09:12:05.501Z,6.82
2023-04-07T09:14:33.784Z,6.95
2023-04-07T09:17:02.394Z,6.30
2023-04-07T09:19:31.455Z,6.18
2023-04-07T09:21:59.643Z,6.35
2023-04-07T09:24:31.805Z,6.63
2023-04-07T09:27:17.871Z,6.50
2023-04-07T09:29:48.501Z,6.72
2023-04-07T09:32:38.740Z,6.45
2023-04-07T09:35:08.104Z,6.72
2023-04-07T09:37:36.425Z,5.60
2023-04-07T09:40:06.219Z,6.45
2023-04-07T09:42:37.870Z,6.95
2023-04-07T09:45:07.129Z,6.82
2023-04-07T09:47:35.543Z,6.88
2023-04-07T09:50:07.146Z,7.38
2023-04-07T09:52:53.639Z,7.18
2023-04-07T09:55:24.291Z,7.95
2023-04-07T09:57:55.320Z,7.70
2023-04-07T10:00:24.280Z,7.43
2023-04-07T10:02:53.279Z,7.20
2023-04-07T10:05:24.866Z,7.82
2023-04-07T10:07:53.138Z,7.20
2023-04-07T10:10:21.536Z,6.80
2023-04-07T10:12:55.085Z,7.43
2023-04-07T10:15:24.341Z,5.65
2023-04-07T10:17:53.649Z,6.03
2023-04-07T10:20:23.486Z,5.53
2023-04-07T10:22:55.844Z,7.18
2023-04-07T10:25:26.776Z,6.22
2023-04-07T10:28:03.966Z,6.18
2023-04-07T10:30:34.518Z,5.22
2023-04-07T10:33:03.642Z,5.70
2023-04-07T10:36:05.920Z,6.35
2023-04-07T10:38:34.707Z,5.75
2023-04-07T10:41:36.681Z,6.47
2023-04-07T10:44:08.053Z,6.35
2023-04-07T10:47:04.808Z,6.82
2023-04-07T10:49:34.079Z,5.90
2023-04-07T10:52:25.493Z,6.88
2023-04-07T10:55:32.561Z,6.38
2023-04-07T10:58:22.484Z,6.15
2023-04-07T11:01:31.904Z,6.07
2023-04-07T11:04:01.957Z,6.85
2023-04-07T11:06:31.413Z,5.85
2023-04-07T11:08:59.743Z,7.05
2023-04-07T11:11:42.867Z,6.10
2023-04-07T11:14:11.513Z,6.57
2023-04-07T11:16:43.823Z,6.60
2023-04-07T11:19:13.356Z,6.90
2023-04-07T11:21:41.812Z,7.00
2023-04-07T11:24:10.116Z,6.85
2023-04-07T11:26:40.729Z,6.82
2023-04-07T11:29:10.307Z,7.03
2023-04-07T11:31:40.950Z,7.28
2023-04-07T11:34:09.361Z,6.80
2023-04-07T11:36:40.780Z,7.30
2023-04-07T11:39:21.663Z,6.70
2023-04-07T11:41:51.808Z,7.10
2023-04-07T11:44:20.478Z,8.07
2023-04-07T11:46:58.229Z,6.63
2023-04-07T11:49:29.136Z,6.50
2023-04-07T11:52:02.806Z,6.07
2023-04-07T11:54:42.516Z,5.93
2023-04-07T11:57:12.543Z,5.55
2023-04-07T11:59:42.336Z,5.85
2023-04-07T12:02:12.124Z,5.47
2023-04-07T12:04:57.244Z,5.07
2023-04-07T12:07:27.353Z,5.32
2023-04-07T12:09:57.714Z,5.47
2023-04-07T12:12:33.216Z,5.05
2023-04-07T12:15:01.855Z,4.45
2023-04-07T12:17:31.513Z,4.70
2023-04-07T12:19:59.789Z,4.80
2023-04-07T12:22:28.332Z,4.80
2023-04-07T12:24:56.511Z,5.40
2023-04-07T12:27:35.875Z,4.40
2023-04-07T12:30:11.130Z,4.60
2023-04-07T12:32:41.090Z,4.50
2023-04-07T12:35:09.691Z,4.60
2023-04-07T12:37:38.496Z,4.70
2023-04-07T12:40:08.654Z,4.88
2023-04-07T12:42:36.869Z,4.65
2023-04-07T12:45:06.301Z,3.90
2023-04-07T12:47:34.696Z,4.47
2023-04-07T12:50:04.701Z,4.50
2023-04-07T12:52:33.025Z,4.45
2023-04-07T12:55:01.214Z,4.35
2023-04-07T12:57:29.741Z,4.45
2023-04-07T12:59:57.945Z,4.53
2023-04-07T13:02:26.658Z,4.40
2023-04-07T13:04:54.887Z,3.90
2023-04-07T13:07:24.504Z,3.95
2023-04-07T13:09:52.819Z,4.00
2023-04-07T13:12:21.501Z,3.88
2023-04-07T13:14:59.584Z,3.85
2023-04-07T13:17:28.836Z,3.88
2023-04-07T13:19:57.591Z,3.63
2023-04-07T13:22:27.558Z,3.80
2023-04-07T13:24:56.192Z,3.08
2023-04-07T13:27:24.627Z,3.05
2023-04-07T13:29:52.908Z,3.70
2023-04-07T13:32:21.276Z,3.05
2023-04-07T13:34:49.468Z,3.78
2023-04-07T13:37:19.476Z,3.50
2023-04-07T13:39:49.121Z,3.35
2023-04-07T13:42:19.130Z,3.20
2023-04-07T13:44:48.315Z,3.58
2023-04-07T13:47:19.664Z,3.10
2023-04-07T13:49:49.207Z,3.50
2023-04-07T13:52:17.780Z,3.75
2023-04-07T13:54:46.334Z,3.30
2023-04-07T13:57:20.610Z,3.75
2023-04-07T13:59:52.084Z,3.78
2023-04-07T14:02:20.750Z,3.75
2023-04-07T14:04:49.233Z,3.28
2023-04-07T14:07:17.744Z,3.63
2023-04-07T14:09:46.295Z,3.50
2023-04-07T14:12:16.158Z,3.67
2023-04-07T14:14:44.671Z,3.97
2023-04-07T14:17:12.947Z,4.03
2023-04-07T14:19:41.151Z,3.85
2023-04-07T14:22:09.426Z,3.90
2023-04-07T14:24:37.706Z,4.25
2023-04-07T14:27:05.996Z,4.57
2023-04-07T14:29:35.659Z,4.30
2023-04-07T14:32:05.351Z,4.47
2023-04-07T14:34:33.623Z,4.20
2023-04-07T14:37:02.056Z,4.80
2023-04-07T14:39:30.488Z,4.00
2023-04-07T14:42:01.574Z,4.60
2023-04-07T14:44:31.233Z,4.90
2023-04-07T14:47:01.639Z,4.13
2023-04-07T14:49:29.907Z,4.88
2023-04-07T14:51:58.687Z,5.70
2023-04-07T14:54:26.912Z,6.13
2023-04-07T14:56:55.261Z,5.47
2023-04-07T14:59:23.558Z,5.10
2023-04-07T15:01:53.740Z,5.30
2023-04-07T15:04:23.690Z,5.40
2023-04-07T15:06:52.241Z,5.20
2023-04-07T15:09:20.560Z,4.90
2023-04-07T15:11:48.897Z,5.68
2023-04-07T15:14:17.199Z,4.80
2023-04-07T15:16:47.233Z,5.60
2023-04-07T15:19:16.301Z,5.20
2023-04-07T15:21:45.940Z,4.77
2023-04-07T15:24:15.999Z,5.10
2023-04-07T15:26:44.874Z,6.37
2023-04-07T15:29:13.168Z,4.63
2023-04-07T15:31:41.606Z,5.50
2023-04-07T15:34:10.018Z,5.47
2023-04-07T15:36:38.374Z,5.90
2023-04-07T15:39:08.446Z,5.40
2023-04-07T15:41:36.979Z,4.70
2023-04-07T15:44:06.228Z,5.35
2023-04-07T15:46:34.634Z,4.35
2023-04-07T15:49:03.287Z,5.45
2023-04-07T15:51:31.544Z,5.85
2023-04-07T15:54:01.375Z,5.80
2023-04-07T15:56:31.995Z,5.45
2023-04-07T15:59:00.288Z,5.10
2023-04-07T16:01:29.753Z,5.17
2023-04-07T16:03:58.407Z,5.45
2023-04-07T16:06:28.115Z,5.20
2023-04-07T16:08:56.767Z,5.40
2023-04-07T16:11:25.082Z,5.88
2023-04-07T16:13:54.838Z,5.90
2023-04-07T16:16:23.130Z,6.07
2023-04-07T16:18:51.898Z,6.47
2023-04-07T16:21:20.268Z,5.60
2023-04-07T16:23:48.755Z,5.50
2023-04-07T16:26:17.183Z,6.27
2023-04-07T16:28:45.659Z,5.87
2023-04-07T16:31:15.332Z,6.17
2023-04-07T16:33:43.600Z,7.00
2023-04-07T16:36:11.848Z,6.23
2023-04-07T16:38:40.089Z,6.10
2023-04-07T16:41:09.279Z,6.23
2023-04-07T16:43:37.575Z,6.57
2023-04-07T16:46:07.517Z,6.17
2023-04-07T16:48:39.121Z,5.90
2023-04-07T16:51:08.496Z,6.17
2023-04-07T16:53:37.080Z,6.07
2023-04-07T16:56:05.649Z,6.27
2023-04-07T16:58:33.935Z,6.07
2023-04-07T17:01:02.240Z,6.07
2023-04-07T17:03:30.720Z,5.70
2023-04-07T17:06:05.212Z,5.90
2023-04-07T17:08:33.556Z,5.07
2023-04-07T17:11:01.949Z,6.10
2023-04-07T17:13:30.442Z,5.93
2023-04-07T17:15:58.806Z,5.00
2023-04-07T17:18:27.114Z,5.50
2023-04-07T17:20:55.465Z,6.27
2023-04-07T17:23:25.466Z,6.20
2023-04-07T17:25:53.956Z,4.60
2023-04-07T17:28:22.360Z,6.00
2023-04-07T17:30:50.610Z,5.97
2023-04-07T17:33:18.893Z,5.83
2023-04-07T17:35:50.012Z,5.30
2023-04-07T17:38:18.385Z,5.23
2023-04-07T17:40:48.069Z,5.60
2023-04-07T17:43:16.474Z,5.47
2023-04-07T17:45:44.751Z,5.77
2023-04-07T17:48:13.720Z,5.97
2023-04-07T17:50:42.345Z,7.70
2023-04-07T17:53:10.641Z,7.50
2023-04-07T17:55:38.908Z,7.07
2023-04-07T17:58:08.706Z,7.43
2023-04-07T18:00:37.123Z,7.67
2023-04-07T18:03:07.117Z,7.83
2023-04-07T18:05:37.671Z,8.73
2023-04-07T18:08:06.341Z,9.20
2023-04-07T18:10:34.613Z,10.10
2023-04-07T18:13:04.738Z,9.97
2023-04-07T18:15:35.013Z,9.00
2023-04-07T18:18:03.484Z,8.23
2023-04-07T18:20:32.894Z,9.13
2023-04-07T18:23:02.047Z,9.57
2023-04-07T18:25:30.352Z,9.70
2023-04-07T18:27:58.656Z,9.03
2023-04-07T18:30:27.168Z,9.40
2023-04-07T18:32:56.834Z,9.20
2023-04-07T18:35:25.484Z,9.60
2023-04-07T18:37:53.933Z,9.33
2023-04-07T18:40:22.254Z,11.03
2023-04-07T18:42:50.561Z,10.17
2023-04-07T18:45:19.051Z,9.23
2023-04-07T18:47:47.714Z,9.27
2023-04-07T18:50:18.112Z,9.53
2023-04-07T18:52:46.304Z,9.57
2023-04-07T18:55:14.568Z,9.40
2023-04-07T18:57:42.963Z,9.93
2023-04-07T19:00:11.836Z,11.57
2023-04-07T19:02:44.178Z,10.57
2023-04-07T19:05:13.020Z,10.97
2023-04-07T19:07:42.650Z,11.47
2023-04-07T19:10:11.331Z,10.97
2023-04-07T19:12:39.942Z,11.03
2023-04-07T19:15:09.780Z,12.23
2023-04-07T19:17:38.783Z,12.40
2023-04-07T19:20:09.238Z,11.80
2023-04-07T19:22:37.694Z,11.43
2023-04-07T19:25:09.169Z,11.67
2023-04-07T19:27:39.365Z,10.50
2023-04-07T19:30:09.558Z,10.60
2023-04-07T19:32:37.979Z,11.20
2023-04-07T19:35:07.796Z,11.53
2023-04-07T19:37:37.788Z,11.87
2023-04-07T19:40:09.328Z,11.80
2023-04-07T19:42:39.191Z,10.43
2023-04-07T19:45:09.021Z,12.50
2023-04-07T19:47:37.767Z,11.97
2023-04-07T19:50:07.762Z,12.00
2023-04-07T19:52:35.992Z,12.77
2023-04-07T19:55:05.956Z,13.00
2023-04-07T19:57:35.910Z,12.63
2023-04-07T20:00:05.259Z,13.17
2023-04-07T20:02:33.626Z,12.47
2023-04-07T20:05:01.912Z,11.27
2023-04-07T20:07:31.003Z,12.13
2023-04-07T20:09:59.877Z,12.20
2023-04-07T20:12:28.303Z,10.97
2023-04-07T20:14:57.914Z,11.03
2023-04-07T20:17:26.336Z,11.47
2023-04-07T20:19:55.560Z,10.07
2023-04-07T20:22:23.852Z,8.83
2023-04-07T20:24:52.150Z,8.90
2023-04-07T20:27:20.438Z,7.83
2023-04-07T20:29:48.711Z,8.27
2023-04-07T20:32:19.253Z,8.03
2023-04-07T20:34:48.189Z,8.70
2023-04-07T20:37:17.176Z,8.93
2023-04-07T20:39:45.546Z,8.20
2023-04-07T20:42:13.789Z,8.70
2023-04-07T20:44:42.636Z,8.40
2023-04-07T20:47:11.221Z,7.80
2023-04-07T20:49:43.469Z,8.20
2023-04-07T20:52:12.408Z,8.07
2023-04-07T20:54:42.646Z,9.17
2023-04-07T20:57:10.977Z,8.93
2023-04-07T20:59:39.287Z,8.67
2023-04-07T21:02:08.022Z,9.47
2023-04-07T21:04:36.797Z,8.97
2023-04-07T21:07:06.445Z,9.97
2023-04-07T21:09:34.740Z,9.67
2023-04-07T21:12:03.508Z,9.17
2023-04-07T21:14:32.853Z,9.90
2023-04-07T21:17:01.201Z,9.43
2023-04-07T21:19:29.552Z,9.53
2023-04-07T21:21:57.909Z,10.10
2023-04-07T21:24:29.618Z,11.37
2023-04-07T21:26:57.840Z,10.77
2023-04-07T21:29:31.567Z,10.90
2023-04-07T21:32:00.264Z,11.07
2023-04-07T21:34:28.552Z,11.60
2023-04-07T21:36:56.834Z,11.17
2023-04-07T21:39:25.082Z,11.93
2023-04-07T21:41:54.788Z,12.87
2023-04-07T21:44:23.288Z,13.27
2023-04-07T21:46:52.428Z,12.20
2023-04-07T21:49:22.291Z,12.77
2023-04-07T21:51:50.544Z,12.90
2023-04-07T21:54:18.856Z,13.33
2023-04-07T21:56:48.969Z,13.27
2023-04-07T21:59:18.692Z,14.40
2023-04-07T22:01:47.098Z,14.87
2023-04-07T22:04:16.041Z,14.90
2023-04-07T22:06:44.370Z,15.00
2023-04-07T22:09:12.591Z,15.10
2023-04-07T22:11:40.854Z,15.47
2023-04-07T22:14:09.216Z,14.57
2023-04-07T22:16:39.900Z,14.90
2023-04-07T22:19:08.243Z,15.43
2023-04-07T22:21:36.619Z,15.77
2023-04-07T22:24:04.970Z,15.70
2023-04-07T22:26:55.718Z,15.47
2023-04-07T22:29:23.928Z,15.10
2023-04-07T22:31:53.633Z,15.70
2023-04-07T22:34:21.958Z,15.03
2023-04-07T22:36:50.522Z,15.90
2023-04-07T22:39:18.838Z,16.27
2023-04-07T22:41:47.110Z,15.70
2023-04-07T22:44:15.363Z,14.23
2023-04-07T22:46:43.665Z,15.70
2023-04-07T22:49:13.258Z,15.87
2023-04-07T22:51:41.650Z,15.07
2023-04-07T22:54:09.858Z,15.17
2023-04-07T22:56:40.369Z,14.33
2023-04-07T22:59:11.031Z,13.70
2023-04-07T23:01:39.450Z,14.83
2023-04-07T23:04:07.695Z,16.20
2023-04-07T23:06:37.312Z,16.90
2023-04-07T23:09:05.778Z,15.07
2023-04-07T23:11:34.522Z,15.60
2023-04-07T23:14:04.911Z,15.27
2023-04-07T23:16:36.229Z,15.20
2023-04-07T23:19:04.781Z,15.47
2023-04-07T23:21:33.271Z,14.60
2023-04-07T23:24:02.846Z,15.63
2023-04-07T23:26:31.527Z,15.40
2023-04-07T23:28:59.779Z,14.17
2023-04-07T23:31:28.219Z,14.67
2023-04-07T23:33:56.912Z,14.57
2023-04-07T23:36:25.196Z,14.33
2023-04-07T23:38:55.377Z,14.63
2023-04-07T23:41:25.450Z,13.07
2023-04-07T23:43:53.736Z,14.37
2023-04-07T23:46:22.090Z,15.67
2023-04-07T23:48:50.815Z,14.90
2023-04-07T23:51:19.363Z,13.57
2023-04-07T23:53:47.744Z,14.73
2023-04-07T23:56:16.127Z,14.63
2023-04-07T23:58:45.927Z,14.30
